KCVG Airport Diagram

We have created a template for each of the higher traffic airports in the vZID airspace. They include KCMH, KCRW, KCVG, KDAY, KIND, KLEX and KSDF. You wil find usefull information including the airport diagram, weather, and specific airport procedures.

KCVG Weather

[Source: ADDS]
METAR
KCVG 190552Z 00000KT 10SM CLR 04/01 A3037 RMK AO2 SLP285 T00390006 10078 20022 56014 =
KCVG 190540Z 1906/2012 18005KT P6SM FEW250 FM191800 21008KT P6SM BKN250 FM192100 22010KT P6SM BKN070 FM192200 23010KT P6SM VCSH BKN060 FM200000 24011G19KT P6SM -SHRA OVC060 FM200300 24011G19KT P6SM VCSH OVC030 FM200900 25008KT P6SM OVC025 FM201100 26007KT P6SM OVC015
TAF
KCVG 190540Z 1906/2012 18005KT P6SM FEW250 FM191800 21008KT P6SM BKN250 FM192100 22010KT P6SM BKN070 FM192200 23010KT P6SM VCSH BKN060 FM200000 24011G19KT P6SM -SHRA OVC060 FM200300 24011G19KT P6SM VCSH OVC030 FM200900 25008KT P6SM OVC025 FM201100 26007KT P6SM OVC015 =

KCVG Operations

Calm Wind Configuration is Landing runways 36C and 36R, departing runway 27.

You can expect  this configuration up to and including a 10 knot tailwind.

The Center runway is the old 18R/36L in the default scenery. Additionally, runway 9/27 was lengthened to 12,000 feet when the west runway (18R/36L) was added.

Where parallel taxiways exist, inner taxiway is used by inbound traffic and outer taxiway is used by outbound traffic.

FDX & UPS use the ramp area at Terminal 1.

New Scenery is available at FlightSim.com.

On initial contact, arriving aircraft should notify the the controller which scenery they have.

 

JSN Epic template designed by JoomlaShine.com